Time;durP1;ratioP1;P1;durP2;ratioP2;P2;SDS_P1;SDS_P2;PMS_P1;PMS_P2;Temp;Humidity;BMP_temperature;BMP_pressure;BME280_temperature;BME280_humidity;BME280_pressure;Samples;Min_cycle;Max_cycle;Signal;HPM_P1;HPM_P2
2023/05/07 00:01:02;;;;;;;16.93;11.47;;;9.30;99.90;;;;;;5068554;28;20226;-72
2023/05/07 00:03:28;;;;;;;16.93;12.07;;;9.20;99.90;;;;;;5070178;28;20280;-72
2023/05/07 00:05:54;;;;;;;16.63;11.87;;;9.30;99.90;;;;;;5069232;28;20219;-73
2023/05/07 00:08:20;;;;;;;16.97;11.77;;;9.30;99.90;;;;;;5068139;28;20214;-73
2023/05/07 00:10:46;;;;;;;16.63;11.63;;;9.30;99.90;;;;;;5067194;28;20260;-73
2023/05/07 00:13:12;;;;;;;15.03;11.63;;;9.30;99.90;;;;;;5067919;28;20615;-73
2023/05/07 00:15:37;;;;;;;14.07;10.63;;;9.30;99.90;;;;;;5069007;28;20206;-73
2023/05/07 00:18:03;;;;;;;16.33;10.37;;;9.30;99.90;;;;;;5069054;28;20278;-73
2023/05/07 00:20:29;;;;;;;14.60;11.47;;;9.40;99.90;;;;;;5067707;28;20214;-73
2023/05/07 00:22:54;;;;;;;14.30;11.00;;;9.30;99.90;;;;;;5069403;28;20687;-73
2023/05/07 00:25:20;;;;;;;14.70;10.50;;;9.40;99.90;;;;;;5069393;28;20689;-71
2023/05/07 00:27:46;;;;;;;14.13;9.93;;;9.30;99.90;;;;;;5067485;28;20171;-72
2023/05/07 00:30:12;;;;;;;19.67;12.20;;;9.30;99.90;;;;;;5068950;28;20206;-72
2023/05/07 00:32:38;;;;;;;15.50;11.20;;;9.30;99.90;;;;;;5067382;28;20697;-72
2023/05/07 00:35:05;;;;;;;14.80;11.10;;;9.40;99.90;;;;;;5069303;28;20202;-72
2023/05/07 00:37:31;;;;;;;13.23;10.03;;;9.30;99.90;;;;;;5069171;28;20207;-73
2023/05/07 00:39:56;;;;;;;13.83;9.90;;;9.30;99.90;;;;;;5068018;28;20218;-72
2023/05/07 00:42:22;;;;;;;16.57;10.53;;;9.30;99.90;;;;;;5066053;28;20294;-72
2023/05/07 00:44:48;;;;;;;13.40;10.10;;;9.30;99.90;;;;;;5073759;28;20260;-73
2023/05/07 00:47:14;;;;;;;11.73;9.13;;;9.30;99.90;;;;;;5075639;28;20610;-72
2023/05/07 00:49:44;;;;;;;14.07;9.60;;;9.40;99.90;;;;;;5072577;28;20215;-72
2023/05/07 00:52:13;;;;;;;13.10;9.60;;;9.30;99.90;;;;;;5075464;28;20301;-73
2023/05/07 00:54:41;;;;;;;14.77;10.00;;;9.30;99.90;;;;;;5091486;28;20211;-72
2023/05/07 00:57:08;;;;;;;13.83;9.63;;;9.30;99.90;;;;;;5077206;28;20185;-72
2023/05/07 00:59:34;;;;;;;13.53;10.23;;;9.30;99.90;;;;;;5077042;28;20240;-72
2023/05/07 01:02:00;;;;;;;12.13;9.70;;;9.30;99.90;;;;;;5077337;28;20700;-72
2023/05/07 01:04:26;;;;;;;14.53;9.70;;;9.30;99.90;;;;;;5078277;28;20314;-72
2023/05/07 01:06:56;;;;;;;13.63;9.87;;;9.20;99.90;;;;;;5077630;28;20343;-72
2023/05/07 01:09:23;;;;;;;14.50;10.47;;;9.30;99.90;;;;;;5077743;28;20195;-72
2023/05/07 01:11:50;;;;;;;16.27;11.57;;;9.20;99.90;;;;;;5073990;28;20209;-73
2023/05/07 01:14:16;;;;;;;14.70;11.03;;;9.20;99.90;;;;;;5075122;28;20206;-73
2023/05/07 01:16:42;;;;;;;12.43;9.90;;;9.30;99.90;;;;;;5072582;28;20253;-74
2023/05/07 01:19:10;;;;;;;14.77;10.63;;;9.30;99.90;;;;;;5074150;28;20206;-74
2023/05/07 01:21:38;;;;;;;13.47;10.77;;;9.30;99.90;;;;;;5071981;28;20226;-74
2023/05/07 01:24:05;;;;;;;12.30;10.33;;;9.30;99.90;;;;;;5075760;28;20653;-74
2023/05/07 01:26:30;;;;;;;13.37;10.20;;;9.20;99.90;;;;;;5074076;28;20203;-73
2023/05/07 01:28:56;;;;;;;14.23;9.83;;;9.30;99.90;;;;;;5073444;28;20575;-73
2023/05/07 01:31:24;;;;;;;11.40;9.50;;;9.20;99.90;;;;;;5089284;28;20207;-73
2023/05/07 01:33:51;;;;;;;13.00;9.67;;;9.20;99.90;;;;;;5073144;28;20198;-73
2023/05/07 01:36:18;;;;;;;13.90;9.83;;;9.20;99.90;;;;;;5074520;28;20175;-73
2023/05/07 01:38:45;;;;;;;13.57;10.70;;;9.20;99.90;;;;;;5075400;28;20277;-73
2023/05/07 01:41:13;;;;;;;14.03;9.30;;;9.20;99.90;;;;;;5074146;28;20214;-73
2023/05/07 01:43:41;;;;;;;12.53;9.30;;;9.20;99.90;;;;;;5073445;28;20218;-72
2023/05/07 01:46:09;;;;;;;13.40;9.40;;;9.20;99.90;;;;;;5073582;28;20290;-72
2023/05/07 01:48:35;;;;;;;12.63;9.47;;;9.20;99.90;;;;;;5089642;28;20198;-72
2023/05/07 01:51:02;;;;;;;9.63;8.63;;;9.20;99.90;;;;;;5075028;28;20701;-72
2023/05/07 01:53:28;;;;;;;12.90;9.07;;;9.20;99.90;;;;;;5074946;28;20590;-72
2023/05/07 01:55:54;;;;;;;13.87;9.10;;;9.20;99.90;;;;;;5070504;28;20214;-72
2023/05/07 01:58:19;;;;;;;11.60;8.77;;;9.20;99.90;;;;;;5072099;28;20219;-72
2023/05/07 02:00:45;;;;;;;12.73;9.43;;;9.30;99.90;;;;;;5069874;28;20195;-72
2023/05/07 02:03:11;;;;;;;12.13;8.93;;;9.20;99.90;;;;;;5072380;28;20171;-71
2023/05/07 02:05:36;;;;;;;14.43;9.63;;;9.20;99.90;;;;;;5071982;28;20203;-71
2023/05/07 02:08:02;;;;;;;15.10;9.73;;;9.20;99.90;;;;;;5071600;28;20217;-73
2023/05/07 02:10:28;;;;;;;13.73;9.47;;;9.20;99.90;;;;;;5069667;28;20231;-72
2023/05/07 02:12:53;;;;;;;12.90;9.90;;;9.30;99.90;;;;;;5070109;28;20211;-75
2023/05/07 02:15:19;;;;;;;13.40;9.90;;;9.20;99.90;;;;;;5072083;28;20660;-72
2023/05/07 02:18:06;;;;;;;13.37;10.27;;;9.10;99.90;;;;;;5071274;28;20259;-72
2023/05/07 02:20:32;;;;;;;14.20;9.90;;;9.10;99.90;;;;;;5063492;28;20206;-72
2023/05/07 02:22:58;;;;;;;12.77;9.90;;;9.10;99.90;;;;;;5071014;28;20721;-72
2023/05/07 02:25:23;;;;;;;13.83;10.67;;;9.10;99.90;;;;;;5071974;28;20217;-72
2023/05/07 02:27:49;;;;;;;16.93;11.07;;;9.10;99.90;;;;;;5069830;28;20191;-72
2023/05/07 02:30:15;;;;;;;13.87;10.77;;;9.00;99.90;;;;;;5070252;28;20210;-71
2023/05/07 02:32:40;;;;;;;15.10;11.07;;;9.00;99.90;;;;;;5064297;28;20301;-72
2023/05/07 02:35:06;;;;;;;12.90;11.00;;;9.10;99.90;;;;;;5070622;28;20203;-72
2023/05/07 02:37:32;;;;;;;15.10;10.63;;;9.10;99.90;;;;;;5069315;28;20207;-72
2023/05/07 02:39:58;;;;;;;14.07;10.70;;;9.10;99.90;;;;;;5069064;28;20386;-72
2023/05/07 02:42:23;;;;;;;15.43;10.70;;;9.10;99.90;;;;;;5070897;28;20921;-72
2023/05/07 02:44:49;;;;;;;12.87;10.07;;;9.20;99.90;;;;;;5070771;28;20234;-72
2023/05/07 02:47:15;;;;;;;14.10;10.53;;;9.10;99.90;;;;;;5071288;28;20585;-74
2023/05/07 02:49:41;;;;;;;14.60;10.27;;;9.20;99.90;;;;;;5070190;28;20700;-74
2023/05/07 02:52:07;;;;;;;14.23;10.37;;;9.20;99.90;;;;;;5069709;28;20214;-74
2023/05/07 02:54:33;;;;;;;17.23;10.33;;;9.20;99.90;;;;;;5069348;28;20175;-73
2023/05/07 02:57:00;;;;;;;13.07;10.20;;;9.20;99.90;;;;;;5071089;28;20551;-73
2023/05/07 02:59:26;;;;;;;14.20;10.70;;;9.20;99.90;;;;;;5071033;28;20219;-75
2023/05/07 03:01:51;;;;;;;14.13;11.25;;;9.20;99.90;;;;;;5068898;28;21021;-75
2023/05/07 03:04:17;;;;;;;12.47;10.37;;;9.20;99.90;;;;;;5070276;28;20203;-74
2023/05/07 03:06:43;;;;;;;12.63;8.93;;;9.10;99.90;;;;;;5070058;28;20186;-74
2023/05/07 03:09:08;;;;;;;11.80;9.03;;;9.20;99.90;;;;;;5071282;28;20183;-74
2023/05/07 03:11:35;;;;;;;14.27;9.40;;;9.20;99.90;;;;;;5069876;28;20739;-74
2023/05/07 03:14:01;;;;;;;14.17;9.93;;;9.20;99.90;;;;;;5066061;28;20320;-74
2023/05/07 03:16:27;;;;;;;13.97;9.33;;;9.20;99.90;;;;;;5070251;28;20215;-74
2023/05/07 03:18:52;;;;;;;12.23;9.03;;;9.20;99.90;;;;;;5068617;28;20272;-74
2023/05/07 03:21:18;;;;;;;14.07;9.03;;;9.20;99.90;;;;;;5071527;28;20205;-74
2023/05/07 03:23:44;;;;;;;13.63;9.73;;;9.20;99.90;;;;;;5070420;28;20614;-74
2023/05/07 03:26:09;;;;;;;14.50;8.53;;;9.20;99.90;;;;;;5068604;28;20222;-74
2023/05/07 03:28:35;;;;;;;10.20;7.17;;;9.20;99.90;;;;;;5070170;28;20210;-74
2023/05/07 03:31:01;;;;;;;11.17;7.60;;;9.10;99.90;;;;;;5067840;28;20219;-73
2023/05/07 03:33:27;;;;;;;11.10;7.87;;;9.20;99.90;;;;;;5069875;28;20179;-73
2023/05/07 03:35:53;;;;;;;12.17;8.70;;;9.20;99.90;;;;;;5070166;28;20221;-73
2023/05/07 03:38:18;;;;;;;11.43;8.63;;;9.10;99.90;;;;;;5070237;28;20211;-75
2023/05/07 03:40:44;;;;;;;11.83;8.80;;;9.10;99.90;;;;;;5069208;28;20720;-74
2023/05/07 03:43:10;;;;;;;10.93;8.93;;;9.10;99.90;;;;;;5070101;28;20312;-74
2023/05/07 03:45:35;;;;;;;11.20;8.50;;;9.20;99.90;;;;;;5069727;28;20202;-74
2023/05/07 03:48:01;;;;;;;10.13;7.80;;;9.10;99.90;;;;;;5072454;28;20175;-74
2023/05/07 03:50:27;;;;;;;12.77;9.00;;;9.20;99.90;;;;;;5081906;28;20785;-74
2023/05/07 03:52:52;;;;;;;12.53;8.53;;;9.20;99.90;;;;;;5070392;28;20222;-73
2023/05/07 03:55:18;;;;;;;12.30;8.47;;;9.10;99.90;;;;;;5067931;28;20214;-74
2023/05/07 03:57:44;;;;;;;13.47;9.47;;;;;;;;;;5070348;28;20185;-74
2023/05/07 04:00:10;;;;;;;12.70;9.23;;;;;;;;;;5068962;28;20999;-74
2023/05/07 04:02:37;;;;;;;12.73;9.10;;;;;;;;;;5084445;28;20218;-74
2023/05/07 04:05:03;;;;;;;11.33;9.03;;;;;;;;;;5072050;28;20215;-74
2023/05/07 04:07:29;;;;;;;14.60;9.80;;;;;;;;;;5068739;28;20256;-74
2023/05/07 04:09:55;;;;;;;11.57;9.30;;;;;;;;;;5070295;28;20227;-74
2023/05/07 04:12:21;;;;;;;13.60;10.10;;;;;;;;;;5070003;28;20653;-75
2023/05/07 04:14:47;;;;;;;12.10;9.43;;;;;;;;;;5067185;28;20207;-73
2023/05/07 04:17:13;;;;;;;15.93;10.50;;;;;;;;;;5069180;28;20238;-73
2023/05/07 04:19:39;;;;;;;11.07;9.07;;;;;;;;;;5068441;28;20227;-73
2023/05/07 04:22:05;;;;;;;11.87;9.57;;;;;;;;;;5069870;28;20275;-74
2023/05/07 04:24:33;;;;;;;12.47;9.40;;;;;;;;;;5071906;28;20580;-73
2023/05/07 04:26:59;;;;;;;10.23;8.83;;;;;;;;;;5070012;28;20218;-74
2023/05/07 04:29:25;;;;;;;10.23;8.40;;;;;;;;;;5065713;28;20225;-74
2023/05/07 04:31:51;;;;;;;11.27;8.93;;;;;;;;;;5069247;28;20206;-74
2023/05/07 04:34:17;;;;;;;11.43;8.67;;;;;;;;;;5069416;28;20209;-74
2023/05/07 04:36:43;;;;;;;10.63;7.70;;;;;;;;;;5070260;28;20182;-74
2023/05/07 04:39:10;;;;;;;11.33;7.77;;;;;;;;;;5065706;28;20179;-74
2023/05/07 04:41:36;;;;;;;11.90;7.60;;;;;;;;;;5067398;28;20219;-74
2023/05/07 04:44:03;;;;;;;10.80;7.80;;;;;;;;;;5066002;28;20217;-73
2023/05/07 04:46:29;;;;;;;9.27;7.37;;;;;;;;;;5068318;28;20218;-72
2023/05/07 04:48:55;;;;;;;9.80;7.40;;;;;;;;;;5064034;28;20294;-73
2023/05/07 04:51:21;;;;;;;10.10;7.30;;;;;;;;;;5062475;28;20279;-74
2023/05/07 04:53:48;;;;;;;8.20;6.87;;;;;;;;;;5066763;28;20213;-73
2023/05/07 04:56:14;;;;;;;9.23;7.50;;;;;;;;;;5077113;28;20616;-72
2023/05/07 04:58:40;;;;;;;8.37;6.30;;;;;;;;;;5068125;28;20681;-72
2023/05/07 05:01:06;;;;;;;8.13;7.10;;;;;;;;;;5071913;28;20675;-73
2023/05/07 05:03:32;;;;;;;9.33;6.67;;;;;;;;;;5065765;28;20178;-74
2023/05/07 05:05:59;;;;;;;9.20;6.40;;;;;;;;;;5067037;28;20587;-74
2023/05/07 05:08:25;;;;;;;10.23;6.70;;;;;;;;;;5072276;28;20297;-73
2023/05/07 05:10:51;;;;;;;7.90;6.20;;;;;;;;;;5070209;28;20257;-75
2023/05/07 05:13:17;;;;;;;7.77;6.10;;;;;;;;;;5070786;28;20609;-74
2023/05/07 05:15:43;;;;;;;9.27;5.77;;;;;;;;;;5069635;28;20189;-73
2023/05/07 05:18:09;;;;;;;11.47;6.00;;;;;;;;;;5066763;28;20262;-72
2023/05/07 05:20:35;;;;;;;10.13;6.50;;;;;;;;;;5067923;28;20211;-74
2023/05/07 05:23:01;;;;;;;7.97;6.10;;;9.40;99.90;;;;;;5064078;28;20226;-75
2023/05/07 05:25:28;;;;;;;9.00;5.80;;;9.40;99.90;;;;;;5061773;28;20219;-73
2023/05/07 05:27:53;;;;;;;10.17;6.30;;;9.50;99.90;;;;;;5065767;28;20636;-74
2023/05/07 05:30:19;;;;;;;7.73;5.77;;;9.50;99.90;;;;;;5068707;28;20289;-74
2023/05/07 05:32:45;;;;;;;7.13;6.10;;;9.50;99.90;;;;;;5089720;28;20306;-73
2023/05/07 05:35:10;;;;;;;31.30;19.10;;;9.50;99.90;;;;;;5071746;28;20219;-72
2023/05/07 05:37:36;;;;;;;8.47;6.00;;;9.60;99.90;;;;;;5067689;28;20258;-72
2023/05/07 05:40:02;;;;;;;9.13;6.23;;;9.50;99.90;;;;;;5071911;28;20709;-76
2023/05/07 05:42:27;;;;;;;6.30;5.40;;;9.50;99.90;;;;;;5079261;28;20210;-73
2023/05/07 05:44:53;;;;;;;6.23;5.57;;;9.60;99.90;;;;;;5071823;28;20238;-73
2023/05/07 05:47:19;;;;;;;8.17;5.50;;;9.70;99.90;;;;;;5077380;28;20727;-73
2023/05/07 05:49:45;;;;;;;6.03;5.20;;;9.80;99.90;;;;;;5067490;28;20300;-74
2023/05/07 05:52:13;;;;;;;9.43;6.10;;;9.80;99.90;;;;;;5074888;28;20234;-74
2023/05/07 05:54:38;;;;;;;6.37;5.53;;;9.90;99.90;;;;;;5068884;28;20183;-73
2023/05/07 05:57:04;;;;;;;7.30;4.47;;;10.60;99.90;;;;;;5071900;28;20631;-73
2023/05/07 05:59:30;;;;;;;8.63;5.20;;;10.50;99.90;;;;;;5073671;28;20724;-75
2023/05/07 06:01:56;;;;;;;6.43;5.20;;;10.20;99.90;;;;;;5068982;28;20241;-75
2023/05/07 06:04:21;;;;;;;6.67;5.77;;;10.40;99.90;;;;;;5072584;28;20218;-74
2023/05/07 06:06:47;;;;;;;8.10;5.80;;;10.50;99.90;;;;;;5071058;28;20206;-73
2023/05/07 06:09:12;;;;;;;7.53;6.20;;;10.70;99.90;;;;;;5070968;28;20218;-75
2023/05/07 06:11:39;;;;;;;8.27;5.70;;;10.80;99.90;;;;;;5072035;28;20986;-74
2023/05/07 06:14:05;;;;;;;7.03;5.27;;;11.20;99.90;;;;;;5069899;28;20293;-75
2023/05/07 06:16:30;;;;;;;9.40;5.97;;;11.70;99.90;;;;;;5091855;28;20246;-74
2023/05/07 06:18:56;;;;;;;8.35;5.40;;;12.00;99.90;;;;;;5061279;28;20709;-74
2023/05/07 06:21:21;;;;;;;5.77;4.97;;;12.00;99.90;;;;;;5073103;28;20222;-74
2023/05/07 06:23:47;;;;;;;7.85;5.05;;;12.50;99.90;;;;;;5070637;28;20239;-73
2023/05/07 06:26:13;;;;;;;5.90;4.90;;;12.70;99.90;;;;;;5069929;28;20246;-74
2023/05/07 06:28:38;;;;;;;8.13;5.65;;;12.20;99.90;;;;;;5065829;28;20203;-74
2023/05/07 06:31:14;;;;;;;5.03;4.53;;;12.60;99.90;;;;;;5071048;28;20214;-74
2023/05/07 06:33:40;;;;;;;7.30;5.47;;;11.90;99.90;;;;;;5068841;28;20217;-73
2023/05/07 06:36:06;;;;;;;7.80;5.50;;;11.50;99.90;;;;;;5074378;28;20254;-73
2023/05/07 06:38:31;;;;;;;8.17;5.97;;;11.10;99.90;;;;;;5072536;28;20226;-73
2023/05/07 06:40:57;;;;;;;8.33;6.07;;;11.20;99.90;;;;;;5067299;28;20223;-74
2023/05/07 06:43:23;;;;;;;8.07;6.03;;;11.20;99.90;;;;;;5069092;28;20229;-75
2023/05/07 06:45:48;;;;;;;9.73;6.00;;;11.00;99.90;;;;;;5072444;28;20195;-73
2023/05/07 06:48:14;;;;;;;11.43;7.03;;;10.90;99.90;;;;;;5072337;28;20179;-74
2023/05/07 06:50:41;;;;;;;7.13;6.03;;;10.80;99.90;;;;;;5069005;28;20214;-74
2023/05/07 06:53:07;;;;;;;9.63;6.68;;;10.80;99.90;;;;;;5066993;28;20430;-74
2023/05/07 06:55:32;;;;;;;8.30;5.83;;;11.00;99.90;;;;;;5072061;28;20206;-73
2023/05/07 06:58:00;;;;;;;7.27;5.50;;;11.10;99.90;;;;;;5078502;28;20664;-75
2023/05/07 07:00:26;;;;;;;7.87;5.60;;;11.10;99.90;;;;;;5070057;28;20203;-74
2023/05/07 07:02:53;;;;;;;7.30;5.47;;;11.00;99.90;;;;;;5083365;28;20587;-74
2023/05/07 07:05:19;;;;;;;6.83;5.43;;;10.90;99.90;;;;;;5070533;28;20764;-73
2023/05/07 07:07:44;;;;;;;8.03;5.97;;;10.80;99.90;;;;;;5068750;28;20302;-73
2023/05/07 07:10:10;;;;;;;6.93;5.67;;;10.80;99.90;;;;;;5067925;28;20235;-75
2023/05/07 07:12:35;;;;;;;8.60;6.17;;;11.10;99.90;;;;;;5069553;28;20178;-76
2023/05/07 07:15:02;;;;;;;9.87;5.27;;;11.00;99.90;;;;;;5073452;28;20180;-75
2023/05/07 07:17:28;;;;;;;6.10;5.10;;;11.00;99.90;;;;;;5067929;28;20211;-75
2023/05/07 07:19:54;;;;;;;6.50;5.33;;;12.00;99.90;;;;;;5068051;28;20203;-75
2023/05/07 07:22:19;;;;;;;7.22;4.50;;;13.30;99.90;;;;;;5069025;28;20218;-74
2023/05/07 07:24:45;;;;;;;6.03;4.32;;;14.60;99.90;;;;;;5071446;28;20183;-75
2023/05/07 07:27:10;;;;;;;5.97;4.00;;;15.40;99.90;;;;;;5071977;28;20701;-73
2023/05/07 07:29:36;;;;;;;4.28;3.75;;;15.50;99.90;;;;;;5064608;28;20298;-74
2023/05/07 07:32:02;;;;;;;4.35;3.78;;;16.40;99.90;;;;;;5067513;28;20215;-74
2023/05/07 07:34:27;;;;;;;4.90;3.80;;;17.10;99.90;;;;;;5072136;28;20218;-74
2023/05/07 07:36:53;;;;;;;5.13;4.05;;;16.00;99.90;;;;;;5074820;28;20222;-76
2023/05/07 07:39:18;;;;;;;3.88;3.50;;;16.00;99.90;;;;;;5092527;28;20851;-76
2023/05/07 07:41:44;;;;;;;4.43;3.00;;;16.70;99.90;;;;;;5070662;28;20381;-75
2023/05/07 07:44:12;;;;;;;5.18;3.60;;;16.80;99.90;;;;;;5073022;28;20208;-76
2023/05/07 07:46:38;;;;;;;5.35;4.07;;;17.10;99.90;;;;;;5071556;28;20218;-74
2023/05/07 07:49:04;;;;;;;5.53;3.75;;;16.10;99.90;;;;;;5067625;28;20597;-74
2023/05/07 07:51:30;;;;;;;5.55;3.65;;;14.80;99.90;;;;;;5080038;28;20183;-74
2023/05/07 07:53:57;;;;;;;4.32;3.33;;;15.10;99.90;;;;;;5068159;28;20218;-75
2023/05/07 07:56:23;;;;;;;3.97;3.20;;;16.00;99.90;;;;;;5065762;28;20236;-74
2023/05/07 07:58:49;;;;;;;10.48;8.10;;;17.00;99.90;;;;;;5066336;28;20214;-73
2023/05/07 08:01:16;;;;;;;6.47;4.93;;;17.70;99.90;;;;;;5064012;28;20218;-74
2023/05/07 08:03:41;;;;;;;7.03;5.35;;;17.20;99.90;;;;;;5065655;28;20175;-74
2023/05/07 08:06:07;;;;;;;3.38;2.80;;;17.10;99.90;;;;;;5070957;28;20678;-75
2023/05/07 08:08:33;;;;;;;7.72;4.75;;;18.00;99.90;;;;;;5068755;28;20264;-74
2023/05/07 08:10:58;;;;;;;6.47;4.07;;;18.60;99.90;;;;;;5069139;28;20238;-75
2023/05/07 08:13:24;;;;;;;4.57;3.47;;;18.70;99.90;;;;;;5075082;28;20238;-74
2023/05/07 08:15:50;;;;;;;4.30;3.25;;;19.00;99.90;;;;;;5070352;28;20225;-75
2023/05/07 08:18:15;;;;;;;6.15;4.45;;;19.50;99.90;;;;;;5070961;28;20886;-75
2023/05/07 08:20:42;;;;;;;3.70;3.33;;;19.80;99.90;;;;;;5071427;28;20642;-74
2023/05/07 08:23:07;;;;;;;6.03;4.55;;;18.60;99.90;;;;;;5067442;28;20219;-75
2023/05/07 08:25:34;;;;;;;6.72;3.28;;;17.20;99.90;;;;;;5069964;28;20847;-74
2023/05/07 08:28:00;;;;;;;5.38;2.97;;;16.30;99.90;;;;;;5068852;28;20939;-74
2023/05/07 08:30:26;;;;;;;3.05;2.65;;;;;;;;;;5065550;28;20286;-75
2023/05/07 08:32:52;;;;;;;8.75;6.57;;;;;;;;;;5068944;28;20207;-76
2023/05/07 08:35:18;;;;;;;4.82;3.63;;;;;;;;;;5070438;28;20271;-73
2023/05/07 08:37:44;;;;;;;4.40;3.35;;;;;;;;;;5066161;28;20211;-73
2023/05/07 08:40:11;;;;;;;5.70;4.15;;;;;;;;;;5066575;28;20215;-73
2023/05/07 08:42:37;;;;;;;5.53;3.03;;;15.80;99.90;;;;;;5068883;28;20207;-74
2023/05/07 08:45:08;;;;;;;6.70;3.25;;;15.80;99.90;;;;;;5069695;28;20171;-72
2023/05/07 08:47:46;;;;;;;5.45;3.30;;;15.20;99.90;;;;;;5062506;28;20255;-71
2023/05/07 08:50:12;;;;;;;7.43;3.63;;;15.20;99.90;;;;;;5064906;28;20202;-72
2023/05/07 08:52:39;;;;;;;4.68;3.30;;;15.00;99.90;;;;;;5053741;28;20249;-75
2023/05/07 08:55:07;;;;;;;4.68;2.78;;;15.20;99.90;;;;;;5065541;28;20413;-75
2023/05/07 08:57:33;;;;;;;3.50;2.78;;;15.10;99.90;;;;;;5066478;28;20615;-73
2023/05/07 08:59:58;;;;;;;6.07;2.47;;;15.50;99.90;;;;;;5067660;28;20276;-72
2023/05/07 09:02:24;;;;;;;3.33;2.63;;;15.70;99.90;;;;;;5093937;23;20712;-77
2023/05/07 09:04:50;;;;;;;3.22;2.38;;;15.80;99.90;;;;;;5086250;28;20206;-76
2023/05/07 09:07:16;;;;;;;3.63;2.67;;;15.70;99.90;;;;;;5091154;28;20206;-74
2023/05/07 09:09:44;;;;;;;5.45;2.88;;;15.40;99.90;;;;;;5088028;28;20181;-73
2023/05/07 09:12:09;;;;;;;4.18;2.53;;;15.60;99.90;;;;;;5090267;28;20232;-75
2023/05/07 09:14:35;;;;;;;4.85;3.35;;;15.50;99.90;;;;;;5091955;28;20687;-74
2023/05/07 09:17:01;;;;;;;5.00;2.80;;;15.50;99.90;;;;;;5091329;28;20221;-75
2023/05/07 09:19:27;;;;;;;4.70;2.72;;;15.20;99.90;;;;;;5091483;28;20206;-74
2023/05/07 09:22:00;;;;;;;4.00;2.95;;;14.90;99.90;;;;;;5090667;28;20700;-74
2023/05/07 09:24:28;;;;;;;3.13;2.30;;;15.00;99.90;;;;;;5090202;28;20186;-75
2023/05/07 09:26:55;;;;;;;3.42;2.53;;;14.60;99.90;;;;;;5091276;28;20256;-75
2023/05/07 09:29:21;;;;;;;4.82;2.83;;;14.90;99.90;;;;;;5103909;28;20417;-75
2023/05/07 09:31:46;;;;;;;3.67;2.67;;;15.10;99.90;;;;;;5088898;28;20750;-76
2023/05/07 09:34:12;;;;;;;3.42;2.65;;;15.00;99.90;;;;;;5086305;28;20214;-75
2023/05/07 09:36:37;;;;;;;4.22;2.85;;;14.40;99.90;;;;;;5090018;28;20186;-76
2023/05/07 09:39:03;;;;;;;4.10;2.55;;;14.70;99.90;;;;;;5090626;28;20174;-75
2023/05/07 09:41:32;;;;;;;3.70;2.35;;;14.80;99.90;;;;;;5089752;28;20238;-76
2023/05/07 09:43:58;;;;;;;6.30;3.08;;;15.00;99.90;;;;;;5088046;28;20210;-75
2023/05/07 09:46:29;;;;;;;4.18;3.17;;;14.90;99.90;;;;;;5092032;28;20226;-76
2023/05/07 09:48:57;;;;;;;5.45;2.75;;;14.70;99.90;;;;;;5089604;28;20630;-76
2023/05/07 09:51:35;;;;;;;5.15;2.55;;;14.50;99.90;;;;;;5089985;28;20211;-76
2023/05/07 09:54:03;;;;;;;3.47;2.80;;;14.40;99.90;;;;;;5089226;28;20238;-75
2023/05/07 09:56:31;;;;;;;4.47;2.55;;;;;;;;;;5086479;28;20210;-76
2023/05/07 09:59:00;;;;;;;5.10;2.75;;;14.80;99.90;;;;;;5084502;28;20256;-75
2023/05/07 10:01:26;;;;;;;2.75;2.45;;;14.50;99.90;;;;;;5082878;28;20635;-76
2023/05/07 10:03:53;;;;;;;3.13;2.63;;;14.40;99.90;;;;;;5084810;28;20234;-76
2023/05/07 10:06:20;;;;;;;5.22;2.55;;;14.20;99.90;;;;;;5091253;28;20224;-76
2023/05/07 10:08:46;;;;;;;2.90;2.38;;;14.30;99.90;;;;;;5091126;28;20289;-76
2023/05/07 10:11:13;;;;;;;4.80;2.50;;;14.70;99.90;;;;;;5092057;28;20214;-77
2023/05/07 10:13:41;;;;;;;5.22;2.58;;;14.70;99.90;;;;;;5088239;28;20293;-75
2023/05/07 10:16:07;;;;;;;3.53;2.15;;;14.80;99.90;;;;;;5090370;28;20270;-75
2023/05/07 10:18:33;;;;;;;2.72;2.38;;;;;;;;;;5093894;28;20668;-75
2023/05/07 10:21:06;;;;;;;2.45;2.00;;;;;;;;;;5092614;28;20217;-76
2023/05/07 10:23:32;;;;;;;2.30;1.90;;;;;;;;;;5090244;28;20211;-74
2023/05/07 10:26:00;;;;;;;2.92;2.53;;;;;;;;;;5089219;28;20756;-75
2023/05/07 10:28:26;;;;;;;3.17;2.00;;;;;;;;;;5088573;28;20214;-75
2023/05/07 10:31:09;;;;;;;2.75;2.03;;;;;;;;;;5085240;28;20293;-75
2023/05/07 10:33:36;;;;;;;4.00;2.00;;;;;;;;;;5086134;28;20177;-74
2023/05/07 10:36:04;;;;;;;3.50;1.83;;;;;;;;;;5088942;28;20245;-74
2023/05/07 10:38:30;;;;;;;1.92;1.58;;;;;;;;;;5085982;28;20209;-75
2023/05/07 10:40:57;;;;;;;4.28;2.15;;;;;;;;;;5088400;28;20262;-75
2023/05/07 10:43:23;;;;;;;1.58;1.45;;;;;;;;;;5083463;28;20225;-75
2023/05/07 10:46:07;;;;;;;2.05;1.30;;;;;;;;;;5088197;28;20167;-77
2023/05/07 10:48:34;;;;;;;1.77;1.63;;;;;;;;;;5093392;28;20179;-77
2023/05/07 10:51:20;;;;;;;1.73;1.58;;;;;;;;;;5087879;28;20617;-78
2023/05/07 10:53:46;;;;;;;1.42;1.33;;;;;;;;;;5086484;28;20206;-76
2023/05/07 10:56:18;;;;;;;1.75;1.25;;;;;;;;;;5090871;28;20206;-76
2023/05/07 10:58:44;;;;;;;2.08;1.60;;;;;;;;;;5092329;28;20289;-76
2023/05/07 11:01:12;;;;;;;1.85;1.42;;;;;;;;;;5097013;28;20222;-76
2023/05/07 11:03:58;;;;;;;3.80;1.48;;;;;;;;;;5083573;28;20163;-77
2023/05/07 11:06:25;;;;;;;2.20;1.40;;;;;;;;;;5091995;28;20183;-77
2023/05/07 11:08:57;;;;;;;3.50;1.67;;;;;;;;;;5090114;28;20276;-78
2023/05/07 11:11:42;;;;;;;2.95;1.40;;;;;;;;;;5092536;28;20214;-76
2023/05/07 11:14:08;;;;;;;3.22;1.40;;;;;;;;;;5107581;27;20584;-76
2023/05/07 11:16:36;;;;;;;1.65;1.30;;;;;;;;;;5100123;28;20206;-76
2023/05/07 11:19:02;;;;;;;1.58;1.48;;;;;;;;;;5089458;28;20278;-77
2023/05/07 11:21:37;;;;;;;1.40;1.30;;;;;;;;;;5100033;28;20198;-80
2023/05/07 11:24:05;;;;;;;3.00;1.52;;;;;;;;;;5090724;28;20356;-77
2023/05/07 11:26:32;;;;;;;1.70;1.30;;;;;;;;;;5099227;28;20291;-77
2023/05/07 11:29:00;;;;;;;2.10;1.65;;;;;;;;;;5096646;28;20225;-77
2023/05/07 11:31:28;;;;;;;1.73;1.40;;;;;;;;;;5089974;28;20238;-77
2023/05/07 11:33:54;;;;;;;1.50;1.40;;;;;;;;;;5099998;28;20206;-77
2023/05/07 11:36:21;;;;;;;2.28;1.67;;;;;;;;;;5091206;28;20196;-78
2023/05/07 11:38:47;;;;;;;2.15;1.33;;;;;;;;;;5101748;28;20224;-79
2023/05/07 11:41:13;;;;;;;2.08;1.65;;;;;;;;;;5087776;28;20628;-77
2023/05/07 11:43:54;;;;;;;5.28;1.70;;;;;;;;;;5097739;27;20209;-77
2023/05/07 11:46:20;;;;;;;3.47;1.73;;;;;;;;;;5091041;28;20210;-77
2023/05/07 11:48:46;;;;;;;3.00;1.60;;;;;;;;;;5093266;28;20583;-76
2023/05/07 11:51:13;;;;;;;2.15;1.88;;;;;;;;;;5083409;28;20745;-76
2023/05/07 11:53:42;;;;;;;4.18;2.00;;;;;;;;;;5090776;28;20248;-77
2023/05/07 11:56:09;;;;;;;2.25;2.00;;;;;;;;;;5091153;28;20321;-77
2023/05/07 11:58:36;;;;;;;1.80;1.48;;;;;;;;;;5091145;28;20753;-77
2023/05/07 12:01:02;;;;;;;1.92;1.65;;;;;;;;;;5087004;28;20310;-76
2023/05/07 12:03:28;;;;;;;3.40;1.75;;;;;;;;;;5090013;28;20661;-77
2023/05/07 12:05:54;;;;;;;2.50;1.70;;;;;;;;;;5089126;28;20205;-77
2023/05/07 12:08:20;;;;;;;2.65;1.40;;;;;;;;;;5098627;28;20232;-76
2023/05/07 12:10:47;;;;;;;1.92;1.60;;;;;;;;;;5118182;27;20235;-76
2023/05/07 12:13:16;;;;;;;2.40;1.90;;;;;;;;;;5097391;28;20222;-76
2023/05/07 12:15:42;;;;;;;4.32;1.60;;;;;;;;;;5096450;27;20177;-76
2023/05/07 12:18:09;;;;;;;1.60;1.40;;;;;;;;;;5097127;28;20171;-76
2023/05/07 12:20:36;;;;;;;2.83;1.98;;;;;;;;;;5088625;28;20595;-76
2023/05/07 12:23:02;;;;;;;1.55;1.45;;;;;;;;;;5094108;28;20214;-75
2023/05/07 12:25:47;;;;;;;4.32;1.60;;;;;;;;;;5091278;28;20210;-78
2023/05/07 12:28:15;;;;;;;4.65;1.83;;;;;;;;;;5098833;28;20243;-74
2023/05/07 12:30:42;;;;;;;1.83;1.23;;;;;;;;;;5080514;28;20181;-75
2023/05/07 12:33:08;;;;;;;1.95;1.60;;;;;;;;;;5084082;28;20166;-78
2023/05/07 12:35:39;;;;;;;1.67;1.58;;;;;;;;;;5088603;28;20206;-77
2023/05/07 12:38:08;;;;;;;1.40;1.20;;;;;;;;;;5088589;28;20567;-77
2023/05/07 12:40:40;;;;;;;2.65;1.85;;;;;;;;;;5091859;28;20226;-79
2023/05/07 12:43:06;;;;;;;2.35;1.48;;;;;;;;;;5093723;28;20222;-78
2023/05/07 12:45:37;;;;;;;2.92;1.60;;;;;;;;;;5096975;27;20181;-79
2023/05/07 12:48:03;;;;;;;2.78;1.45;;;;;;;;;;5103562;28;20797;-80
2023/05/07 12:50:33;;;;;;;6.45;2.70;;;;;;;;;;5094689;27;20233;-82
2023/05/07 12:52:59;;;;;;;2.53;1.60;;;;;;;;;;5103673;27;20714;-80
2023/05/07 12:55:25;;;;;;;2.90;1.80;;;;;;;;;;5089050;28;20854;-79
2023/05/07 12:57:51;;;;;;;1.80;1.40;;;;;;;;;;5091779;28;20218;-75
2023/05/07 13:00:18;;;;;;;3.65;1.65;;;;;;;;;;5089825;28;20182;-76
2023/05/07 13:02:44;;;;;;;1.65;1.40;;;;;;;;;;5086301;28;20763;-76
2023/05/07 13:05:10;;;;;;;2.63;1.90;;;;;;;;;;5086495;28;20245;-75
2023/05/07 13:07:37;;;;;;;4.28;1.48;;;;;;;;;;5086903;28;20256;-73
2023/05/07 13:10:03;;;;;;;3.03;1.73;;;;;;;;;;5087884;28;20654;-82
2023/05/07 13:12:29;;;;;;;2.40;1.40;;;;;;;;;;5086473;28;20218;-82
2023/05/07 13:14:55;;;;;;;2.83;1.27;;;;;;;;;;5093585;28;20244;-72
2023/05/07 13:17:21;;;;;;;2.20;1.40;;;;;;;;;;5085034;28;20211;-76
2023/05/07 13:19:47;;;;;;;1.80;1.30;;;;;;;;;;5086219;28;20210;-73